Time;durP1;ratioP1;P1;durP2;ratioP2;P2;SDS_P1;SDS_P2;PMS_P1;PMS_P2;Temp;Humidity;BMP_temperature;BMP_pressure;BME280_temperature;BME280_humidity;BME280_pressure;Samples;Min_cycle;Max_cycle;Signal;HPM_P1;HPM_P2
2021/07/17 00:01:30;;;;;;;30.58;19.52;;;19.30;96.40;;;;;;6250442;28;20136;-78
2021/07/17 00:04:34;;;;;;;26.23;18.40;;;19.40;96.50;;;;;;6242888;28;20115;-77
2021/07/17 00:07:36;;;;;;;24.98;17.17;;;19.40;96.20;;;;;;6241136;28;20057;-77
2021/07/17 00:10:40;;;;;;;27.42;17.88;;;19.40;96.10;;;;;;6250212;28;20709;-79
2021/07/17 00:13:42;;;;;;;19.40;15.35;;;19.50;96.00;;;;;;6251073;28;20053;-77
2021/07/17 00:16:44;;;;;;;28.88;17.00;;;19.50;95.90;;;;;;6251681;28;20041;-78
2021/07/17 00:19:47;;;;;;;26.08;15.38;;;19.40;96.00;;;;;;6252549;28;20053;-79
2021/07/17 00:22:49;;;;;;;27.63;16.90;;;19.40;96.00;;;;;;6250611;28;20053;-78
2021/07/17 00:25:53;;;;;;;28.20;18.30;;;19.40;96.00;;;;;;6259005;28;20042;-76
2021/07/17 00:28:55;;;;;;;25.55;17.17;;;19.50;96.10;;;;;;6258020;28;20486;-78
2021/07/17 00:31:57;;;;;;;28.10;17.75;;;19.40;95.90;;;;;;6252609;28;20049;-77
2021/07/17 00:35:00;;;;;;;21.73;16.88;;;19.40;95.90;;;;;;6252516;28;20073;-77
2021/07/17 00:38:02;;;;;;;32.20;19.33;;;19.40;96.20;;;;;;6252938;28;20084;-77
2021/07/17 00:41:04;;;;;;;26.40;18.10;;;19.40;96.40;;;;;;6253253;28;20087;-77
2021/07/17 00:44:08;;;;;;;29.35;18.08;;;19.40;96.20;;;;;;6252602;28;20522;-78
2021/07/17 00:47:10;;;;;;;35.13;17.90;;;19.40;96.70;;;;;;6253754;28;20128;-77
2021/07/17 00:50:15;;;;;;;28.90;19.02;;;19.30;96.80;;;;;;6253281;28;20049;-77
2021/07/17 00:53:17;;;;;;;25.48;17.73;;;19.20;97.30;;;;;;6253658;28;20418;-78
2021/07/17 00:56:21;;;;;;;24.00;19.33;;;19.20;97.50;;;;;;6253541;28;20103;-78
2021/07/17 00:59:25;;;;;;;26.50;19.45;;;19.20;97.50;;;;;;6253867;28;20054;-78
2021/07/17 01:02:29;;;;;;;25.98;20.17;;;19.20;97.60;;;;;;6253703;28;20111;-79
2021/07/17 01:05:33;;;;;;;25.00;19.08;;;19.20;97.70;;;;;;6255375;28;20077;-77
2021/07/17 01:08:35;;;;;;;26.70;17.88;;;19.20;97.90;;;;;;6254115;28;20119;-78
2021/07/17 01:11:37;;;;;;;20.73;17.33;;;19.20;97.80;;;;;;6254206;28;20091;-78
2021/07/17 01:14:40;;;;;;;24.95;17.83;;;19.10;98.00;;;;;;6254183;28;20073;-78
2021/07/17 01:17:42;;;;;;;24.40;17.48;;;19.10;98.40;;;;;;6254228;28;20075;-79
2021/07/17 01:20:48;;;;;;;30.42;18.38;;;19.10;98.50;;;;;;6254570;28;20129;-78
2021/07/17 01:23:51;;;;;;;23.83;17.23;;;19.00;98.60;;;;;;6254005;28;20128;-78
2021/07/17 01:26:53;;;;;;;24.08;19.20;;;18.90;99.20;;;;;;6253881;28;20113;-78
2021/07/17 01:29:55;;;;;;;30.35;21.17;;;18.90;99.70;;;;;;6254964;28;20091;-76
2021/07/17 01:32:57;;;;;;;26.83;19.00;;;18.90;99.60;;;;;;6253667;28;20108;-77
2021/07/17 01:35:59;;;;;;;28.73;19.98;;;18.90;99.60;;;;;;6253383;28;20128;-78
2021/07/17 01:39:03;;;;;;;32.38;20.42;;;18.90;99.70;;;;;;6253930;28;20109;-78
2021/07/17 01:42:05;;;;;;;28.85;19.58;;;18.80;99.90;;;;;;6254237;28;20146;-79
2021/07/17 01:45:09;;;;;;;31.08;19.65;;;18.80;99.90;;;;;;6254951;28;20692;-79
2021/07/17 01:48:13;;;;;;;24.85;17.58;;;18.90;99.90;;;;;;6252623;28;20490;-77
2021/07/17 01:51:14;;;;;;;27.85;19.10;;;18.80;99.90;;;;;;6252356;28;20129;-78
2021/07/17 01:54:17;;;;;;;27.15;19.35;;;18.90;99.90;;;;;;6252334;28;20053;-76
2021/07/17 01:57:19;;;;;;;24.77;18.77;;;18.90;99.90;;;;;;6253060;28;20136;-78
2021/07/17 02:00:22;;;;;;;30.05;18.52;;;18.90;99.90;;;;;;6242788;28;20091;-77
2021/07/17 02:03:24;;;;;;;24.83;19.35;;;18.90;99.90;;;;;;6250098;28;20132;-78
2021/07/17 02:06:26;;;;;;;29.63;18.23;;;18.90;99.90;;;;;;6252023;28;20487;-79
2021/07/17 02:09:29;;;;;;;24.60;18.05;;;18.90;99.90;;;;;;6252507;28;20056;-78
2021/07/17 02:12:31;;;;;;;24.27;18.15;;;19.00;99.90;;;;;;6258035;22;20234;-78
2021/07/17 02:15:35;;;;;;;31.60;18.25;;;19.00;99.80;;;;;;6201037;28;20081;-77
2021/07/17 02:18:37;;;;;;;25.15;18.10;;;18.90;99.80;;;;;;6201357;28;20050;-78
2021/07/17 02:21:39;;;;;;;29.40;19.20;;;18.90;99.80;;;;;;6201159;28;20489;-78
2021/07/17 02:24:42;;;;;;;25.73;18.60;;;18.90;99.90;;;;;;6201051;28;20058;-78
2021/07/17 02:27:44;;;;;;;20.90;18.08;;;18.80;99.90;;;;;;6200281;28;20706;-79
2021/07/17 02:30:46;;;;;;;25.58;19.63;;;18.80;99.90;;;;;;6201200;28;20110;-79
2021/07/17 02:33:48;;;;;;;24.33;18.50;;;18.80;99.90;;;;;;6201150;28;20060;-78
2021/07/17 02:36:50;;;;;;;27.65;19.33;;;18.80;99.90;;;;;;6200748;28;20081;-78
2021/07/17 02:39:53;;;;;;;31.05;20.00;;;18.80;99.90;;;;;;6200942;28;20124;-78
2021/07/17 02:42:55;;;;;;;24.73;19.48;;;18.70;99.90;;;;;;6200451;28;20070;-78
2021/07/17 02:45:57;;;;;;;27.10;20.08;;;18.80;99.90;;;;;;6200546;28;20437;-78
2021/07/17 02:48:59;;;;;;;24.35;17.70;;;18.80;99.90;;;;;;6200274;28;20145;-78
2021/07/17 02:52:00;;;;;;;27.73;20.45;;;18.80;99.90;;;;;;6200267;28;20100;-78
2021/07/17 02:55:04;;;;;;;29.83;19.35;;;18.80;99.90;;;;;;6200311;28;20046;-78
2021/07/17 02:58:06;;;;;;;25.25;19.17;;;18.80;99.90;;;;;;6200672;28;20054;-78
2021/07/17 03:01:08;;;;;;;23.98;19.05;;;18.90;99.90;;;;;;6210168;28;20077;-79
2021/07/17 03:04:10;;;;;;;23.98;18.63;;;18.90;99.90;;;;;;6221459;28;20503;-78
2021/07/17 03:07:12;;;;;;;28.88;19.25;;;18.90;99.90;;;;;;6224070;28;20046;-78
2021/07/17 03:10:15;;;;;;;24.38;18.02;;;19.00;99.90;;;;;;6224615;28;20056;-78
2021/07/17 03:13:17;;;;;;;24.55;18.65;;;19.00;99.90;;;;;;6224645;28;20474;-78
2021/07/17 03:16:19;;;;;;;23.88;19.00;;;19.00;99.90;;;;;;6224051;28;20111;-78
2021/07/17 03:19:20;;;;;;;25.25;19.63;;;19.00;99.90;;;;;;6224526;28;20569;-78
2021/07/17 03:22:23;;;;;;;30.40;22.65;;;19.00;99.90;;;;;;6224400;28;20074;-78
2021/07/17 03:25:26;;;;;;;25.35;19.42;;;19.10;99.90;;;;;;6224421;28;20057;-78
2021/07/17 03:28:28;;;;;;;28.63;19.13;;;19.10;99.90;;;;;;6223593;28;20049;-78
2021/07/17 03:31:31;;;;;;;20.60;17.63;;;19.10;99.90;;;;;;6224107;28;20046;-77
2021/07/17 03:34:33;;;;;;;27.05;17.45;;;19.10;99.90;;;;;;6221984;28;20795;-77
2021/07/17 03:37:35;;;;;;;23.30;18.75;;;19.10;99.90;;;;;;6222800;28;20057;-77
2021/07/17 03:40:39;;;;;;;26.23;18.70;;;19.20;99.90;;;;;;6222358;28;20057;-77
2021/07/17 03:43:40;;;;;;;24.08;18.40;;;19.20;99.90;;;;;;6222448;28;20129;-77
2021/07/17 03:46:42;;;;;;;24.05;17.25;;;19.20;99.90;;;;;;6222088;28;20727;-77
2021/07/17 03:49:44;;;;;;;24.17;19.65;;;19.20;99.90;;;;;;6222637;28;20397;-77
2021/07/17 03:52:46;;;;;;;26.92;18.45;;;19.20;99.90;;;;;;6221951;28;20053;-77
2021/07/17 03:55:49;;;;;;;24.02;19.65;;;19.20;99.90;;;;;;6220876;28;20559;-77
2021/07/17 03:58:51;;;;;;;24.33;18.20;;;19.20;99.90;;;;;;6222187;28;20128;-77
2021/07/17 04:01:53;;;;;;;23.70;17.33;;;19.20;99.90;;;;;;6215766;28;20042;-77
2021/07/17 04:04:57;;;;;;;23.30;17.52;;;19.30;99.90;;;;;;6199778;28;20562;-77
2021/07/17 04:07:58;;;;;;;22.95;16.80;;;19.30;99.90;;;;;;6202093;28;20057;-77
2021/07/17 04:11:02;;;;;;;25.45;18.40;;;19.30;99.90;;;;;;6202423;28;20266;-77
2021/07/17 04:14:04;;;;;;;29.58;20.83;;;19.30;99.90;;;;;;6201638;28;20539;-77
2021/07/17 04:17:06;;;;;;;29.40;19.58;;;19.30;99.90;;;;;;6202204;28;20188;-77
2021/07/17 04:20:09;;;;;;;21.35;17.65;;;19.30;99.90;;;;;;6202009;28;20104;-77
2021/07/17 04:23:11;;;;;;;30.75;19.98;;;19.40;99.90;;;;;;6201580;28;20531;-77
2021/07/17 04:26:14;;;;;;;23.90;18.80;;;19.40;99.90;;;;;;6200980;28;20050;-77
2021/07/17 04:29:16;;;;;;;24.20;18.77;;;19.40;99.90;;;;;;6201876;28;20137;-77
2021/07/17 04:32:18;;;;;;;28.83;20.10;;;19.40;99.90;;;;;;6201166;28;20050;-76
2021/07/17 04:35:20;;;;;;;26.77;18.98;;;19.40;99.80;;;;;;6201262;28;20519;-76
2021/07/17 04:38:21;;;;;;;27.35;19.35;;;19.40;99.50;;;;;;6201009;28;20072;-76
2021/07/17 04:41:25;;;;;;;22.10;18.75;;;19.40;99.40;;;;;;6201288;28;20604;-77
2021/07/17 04:44:26;;;;;;;27.50;20.73;;;19.40;99.50;;;;;;6201334;28;20525;-76
2021/07/17 04:47:28;;;;;;;30.75;18.52;;;19.40;99.50;;;;;;6201443;28;20451;-77
2021/07/17 04:50:30;;;;;;;29.70;19.40;;;19.40;99.90;;;;;;6202262;28;20180;-77
2021/07/17 04:53:32;;;;;;;25.15;17.17;;;19.40;99.90;;;;;;6201707;28;20078;-77
2021/07/17 04:56:35;;;;;;;30.60;19.55;;;19.50;99.90;;;;;;6201469;28;20129;-77
2021/07/17 04:59:37;;;;;;;22.70;17.67;;;19.50;99.90;;;;;;6201620;28;20139;-77
2021/07/17 05:02:49;;;;;;;34.58;21.25;;;19.50;99.90;;;;;;6206443;28;20046;-76
2021/07/17 05:05:51;;;;;;;22.80;20.05;;;19.50;99.80;;;;;;6201028;28;20049;-77
2021/07/17 05:08:53;;;;;;;26.50;20.98;;;19.50;99.40;;;;;;6201622;28;20083;-77
2021/07/17 05:11:56;;;;;;;24.23;19.50;;;19.50;99.40;;;;;;6200569;28;20046;-77
2021/07/17 05:14:58;;;;;;;25.25;19.13;;;19.60;99.20;;;;;;6200123;28;20096;-77
2021/07/17 05:17:59;;;;;;;28.50;19.10;;;19.70;99.00;;;;;;6200951;28;20125;-77
2021/07/17 05:21:02;;;;;;;23.85;18.17;;;19.80;99.20;;;;;;6200287;28;20050;-77
2021/07/17 05:24:04;;;;;;;27.58;19.83;;;19.80;98.90;;;;;;6200742;28;20050;-77
2021/07/17 05:27:07;;;;;;;27.63;21.75;;;19.80;98.60;;;;;;6200014;28;20050;-77
2021/07/17 05:30:10;;;;;;;22.33;17.70;;;19.80;98.60;;;;;;6200698;28;20050;-77
2021/07/17 05:33:12;;;;;;;28.52;17.67;;;19.80;98.40;;;;;;6200559;28;20160;-76
2021/07/17 05:36:13;;;;;;;24.85;19.77;;;19.90;98.60;;;;;;6199728;28;20121;-76
2021/07/17 05:39:15;;;;;;;21.88;19.30;;;19.90;98.70;;;;;;6199945;28;20646;-76
2021/07/17 05:42:18;;;;;;;30.38;18.25;;;19.90;98.70;;;;;;6200182;28;20054;-77
2021/07/17 05:45:20;;;;;;;31.52;20.88;;;19.90;98.30;;;;;;6200706;28;20059;-77
2021/07/17 05:48:22;;;;;;;23.02;17.52;;;19.90;98.20;;;;;;6199183;28;20114;-76
2021/07/17 05:51:24;;;;;;;20.55;17.33;;;20.00;98.10;;;;;;6199792;28;20078;-77
2021/07/17 05:54:26;;;;;;;25.95;19.05;;;20.00;97.80;;;;;;6199492;28;20046;-76
2021/07/17 05:57:31;;;;;;;21.83;17.90;;;20.10;97.80;;;;;;6199355;28;20094;-76
2021/07/17 06:00:34;;;;;;;20.70;18.33;;;20.10;97.70;;;;;;6199101;28;20140;-77
2021/07/17 06:03:36;;;;;;;22.58;17.10;;;20.20;97.90;;;;;;6196881;28;20053;-76
2021/07/17 06:06:38;;;;;;;24.63;17.98;;;20.20;97.00;;;;;;6186872;28;20054;-77
2021/07/17 06:09:41;;;;;;;22.70;18.95;;;20.20;96.30;;;;;;6199675;28;20423;-77
2021/07/17 06:12:46;;;;;;;25.52;18.27;;;20.30;96.10;;;;;;6199093;28;20054;-77
2021/07/17 06:15:48;;;;;;;27.15;19.55;;;20.40;95.80;;;;;;6198983;28;20124;-77
2021/07/17 06:18:50;;;;;;;25.02;18.05;;;20.40;95.40;;;;;;6198913;28;20524;-77
2021/07/17 06:21:51;;;;;;;29.83;16.58;;;20.50;95.30;;;;;;6199369;28;20073;-76
2021/07/17 06:24:53;;;;;;;20.58;17.75;;;20.60;95.20;;;;;;6198919;28;20050;-77
2021/07/17 06:27:56;;;;;;;21.63;16.08;;;20.80;95.10;;;;;;6197928;28;20193;-77
2021/07/17 06:30:58;;;;;;;22.45;17.50;;;20.90;94.40;;;;;;6198968;28;20410;-76
2021/07/17 06:34:00;;;;;;;30.40;17.08;;;21.00;93.60;;;;;;6199004;28;20136;-77
2021/07/17 06:37:02;;;;;;;24.73;17.05;;;21.00;93.30;;;;;;6198515;28;20043;-77
2021/07/17 06:40:05;;;;;;;17.05;14.32;;;21.10;94.20;;;;;;6199088;28;20042;-77
2021/07/17 06:43:08;;;;;;;19.73;14.68;;;21.30;93.50;;;;;;6199047;28;20120;-77
2021/07/17 06:46:11;;;;;;;18.10;15.25;;;21.50;91.60;;;;;;6199085;28;20630;-77
2021/07/17 06:49:12;;;;;;;21.58;16.92;;;21.50;90.70;;;;;;6199667;28;20070;-77
2021/07/17 06:52:14;;;;;;;19.80;14.77;;;21.60;90.40;;;;;;6199191;28;20043;-77
2021/07/17 06:55:16;;;;;;;19.88;14.50;;;21.50;90.30;;;;;;6198176;28;20042;-76
2021/07/17 06:58:19;;;;;;;24.38;15.23;;;21.50;90.50;;;;;;6197767;28;20050;-76
2021/07/17 07:01:21;;;;;;;20.20;15.00;;;21.60;90.50;;;;;;6198617;28;20078;-76
2021/07/17 07:04:23;;;;;;;24.10;16.35;;;21.50;90.50;;;;;;6194854;28;20051;-76
2021/07/17 07:07:25;;;;;;;23.63;16.80;;;21.50;90.40;;;;;;6194774;28;20074;-77
2021/07/17 07:10:27;;;;;;;23.95;15.13;;;21.50;90.20;;;;;;6198547;28;20073;-77
2021/07/17 07:13:30;;;;;;;23.45;15.00;;;21.60;90.50;;;;;;6198110;28;20046;-77
2021/07/17 07:16:32;;;;;;;21.23;14.73;;;21.60;90.40;;;;;;6197381;28;20128;-77
2021/07/17 07:19:34;;;;;;;23.95;15.98;;;21.70;90.30;;;;;;6198138;28;20129;-76
2021/07/17 07:22:36;;;;;;;31.50;19.35;;;21.70;90.00;;;;;;6197649;28;20069;-77
2021/07/17 07:25:38;;;;;;;33.38;17.77;;;21.80;89.80;;;;;;6197987;28;20188;-76
2021/07/17 07:28:41;;;;;;;17.80;15.50;;;21.90;89.80;;;;;;6197266;28;20042;-76
2021/07/17 07:31:43;;;;;;;28.05;17.42;;;21.90;88.50;;;;;;6197494;28;20460;-77
2021/07/17 07:34:45;;;;;;;18.05;15.65;;;22.00;87.90;;;;;;6198069;28;20093;-76
2021/07/17 07:37:46;;;;;;;25.73;14.95;;;22.10;87.90;;;;;;6198651;28;20050;-76
2021/07/17 07:40:48;;;;;;;20.98;15.90;;;22.10;87.20;;;;;;6202609;28;20053;-77
2021/07/17 07:43:52;;;;;;;19.85;15.80;;;22.10;86.80;;;;;;6202652;28;20504;-76
2021/07/17 07:46:54;;;;;;;28.63;14.52;;;22.10;87.10;;;;;;6201975;28;20556;-77
2021/07/17 07:49:57;;;;;;;20.35;14.38;;;22.00;87.10;;;;;;6203210;28;20050;-76
2021/07/17 07:52:59;;;;;;;23.35;14.48;;;22.00;86.90;;;;;;6202080;28;20046;-77
2021/07/17 07:56:02;;;;;;;20.80;15.57;;;21.90;86.60;;;;;;6202240;28;20054;-77
2021/07/17 07:59:05;;;;;;;24.73;17.38;;;21.90;86.50;;;;;;6202138;28;20054;-76
2021/07/17 08:02:08;;;;;;;27.67;16.00;;;21.90;87.50;;;;;;6202827;28;20508;-77
2021/07/17 08:05:11;;;;;;;32.88;16.73;;;22.00;87.60;;;;;;6202550;28;20043;-76
2021/07/17 08:08:12;;;;;;;20.30;14.82;;;22.00;87.50;;;;;;6200487;28;20100;-77
2021/07/17 08:11:14;;;;;;;19.25;14.70;;;22.00;87.10;;;;;;6201664;28;20133;-77
2021/07/17 08:14:17;;;;;;;19.70;16.05;;;22.10;86.50;;;;;;6267324;23;20129;-77
2021/07/17 08:17:19;;;;;;;15.85;14.25;;;22.00;86.20;;;;;;6238793;28;20058;-77
2021/07/17 08:20:21;;;;;;;20.25;16.38;;;22.00;86.90;;;;;;6225767;28;20046;-77
2021/07/17 08:23:24;;;;;;;18.08;15.30;;;22.10;86.50;;;;;;6225960;28;20081;-77
2021/07/17 08:26:26;;;;;;;23.48;17.90;;;22.20;85.90;;;;;;6225507;28;20053;-77
2021/07/17 08:29:29;;;;;;;20.67;15.55;;;22.20;85.80;;;;;;6226758;28;20050;-77
2021/07/17 08:32:31;;;;;;;21.48;15.38;;;22.30;85.00;;;;;;6205470;28;20050;-77
2021/07/17 08:35:33;;;;;;;15.90;14.25;;;22.40;84.60;;;;;;6213325;28;20196;-77
2021/07/17 08:38:35;;;;;;;20.73;14.98;;;22.50;83.90;;;;;;6225488;28;20180;-77
2021/07/17 08:41:41;;;;;;;15.38;13.65;;;22.60;83.40;;;;;;6226107;28;20056;-77
2021/07/17 08:44:47;;;;;;;22.75;14.13;;;22.70;83.40;;;;;;6203710;28;20070;-78
2021/07/17 08:47:51;;;;;;;21.73;13.65;;;22.70;83.20;;;;;;6214930;28;20105;-77
2021/07/17 08:50:53;;;;;;;17.25;14.77;;;22.80;82.50;;;;;;6224705;28;20084;-77
2021/07/17 08:53:56;;;;;;;15.63;13.45;;;22.80;82.50;;;;;;6225205;28;20050;-77
2021/07/17 08:56:58;;;;;;;18.23;13.27;;;22.80;81.70;;;;;;6201113;28;20492;-77
2021/07/17 09:00:05;;;;;;;18.17;12.63;;;22.70;81.00;;;;;;6216197;28;20108;-77
2021/07/17 09:03:09;;;;;;;19.42;14.27;;;22.70;81.50;;;;;;6225262;28;20050;-77
2021/07/17 09:06:11;;;;;;;17.77;15.52;;;22.80;82.00;;;;;;6223889;28;20629;-77
2021/07/17 09:09:28;;;;;;;19.30;12.43;;;22.80;81.20;;;;;;6203604;28;20138;-78
2021/07/17 09:12:30;;;;;;;15.90;11.85;;;23.00;81.00;;;;;;6200141;28;20049;-75
2021/07/17 09:15:33;;;;;;;18.27;13.18;;;23.00;79.50;;;;;;6200361;28;20097;-78
2021/07/17 09:18:44;;;;;;;13.95;12.35;;;23.10;79.80;;;;;;6195932;28;20066;-78
2021/07/17 09:21:46;;;;;;;19.83;12.48;;;23.10;78.80;;;;;;6176352;28;20050;-78
2021/07/17 09:25:05;;;;;;;16.92;12.15;;;23.00;78.70;;;;;;6175891;28;20508;-78
2021/07/17 09:28:19;;;;;;;14.88;12.52;;;22.90;79.90;;;;;;6192510;28;20038;-78
2021/07/17 09:31:22;;;;;;;14.10;11.93;;;22.90;79.70;;;;;;6199724;28;20415;-78
2021/07/17 09:34:27;;;;;;;16.77;13.65;;;23.00;80.30;;;;;;6199967;28;20042;-77
2021/07/17 09:37:31;;;;;;;16.27;11.98;;;23.00;79.80;;;;;;6200033;28;20052;-77
2021/07/17 09:40:49;;;;;;;22.65;13.93;;;23.20;79.80;;;;;;6199551;28;20095;-77
2021/07/17 09:44:03;;;;;;;14.07;11.60;;;23.40;79.00;;;;;;6199640;28;20129;-77
2021/07/17 09:47:16;;;;;;;21.30;12.95;;;23.50;78.50;;;;;;6191108;28;20053;-76
2021/07/17 09:50:19;;;;;;;16.95;12.93;;;23.50;77.70;;;;;;6177269;28;20524;-77
2021/07/17 09:53:45;;;;;;;14.93;11.30;;;23.60;77.10;;;;;;6200102;28;20054;-76
2021/07/17 09:56:46;;;;;;;13.32;10.60;;;23.60;77.20;;;;;;6199160;28;20050;-76
2021/07/17 10:00:02;;;;;;;21.67;13.27;;;23.60;76.30;;;;;;6199203;28;20065;-76
2021/07/17 10:03:14;;;;;;;16.70;11.73;;;23.70;76.00;;;;;;6189577;28;20524;-76
2021/07/17 10:06:41;;;;;;;16.00;11.45;;;23.80;75.80;;;;;;6176031;28;20055;-77
2021/07/17 10:09:43;;;;;;;17.58;11.50;;;24.00;75.50;;;;;;6210756;28;20061;-76
2021/07/17 10:12:45;;;;;;;15.43;10.75;;;24.00;74.80;;;;;;6223269;28;20068;-76
2021/07/17 10:15:47;;;;;;;19.33;10.77;;;24.10;74.70;;;;;;6223159;28;20129;-76
2021/07/17 10:18:51;;;;;;;11.80;10.38;;;24.10;74.00;;;;;;6223402;28;20054;-76
2021/07/17 10:21:54;;;;;;;14.35;10.38;;;24.10;73.80;;;;;;6223417;28;20061;-76
2021/07/17 10:24:56;;;;;;;14.63;10.90;;;24.10;73.70;;;;;;6223159;28;20488;-76
2021/07/17 10:27:58;;;;;;;14.32;10.50;;;24.00;73.90;;;;;;6222776;28;20052;-76
2021/07/17 10:31:00;;;;;;;14.35;10.88;;;24.00;73.70;;;;;;6215899;28;20154;-76
2021/07/17 10:34:04;;;;;;;11.07;9.57;;;24.00;73.80;;;;;;6199634;28;20674;-76
2021/07/17 10:37:11;;;;;;;16.85;10.10;;;23.90;73.50;;;;;;6199185;28;20133;-77
2021/07/17 10:40:17;;;;;;;14.98;11.05;;;23.90;73.90;;;;;;6198779;28;20114;-76
2021/07/17 10:43:21;;;;;;;16.58;10.38;;;23.80;73.50;;;;;;6198419;28;20085;-77
2021/07/17 10:46:31;;;;;;;13.10;9.98;;;23.90;73.60;;;;;;6198531;28;20054;-76
2021/07/17 10:49:37;;;;;;;12.15;10.30;;;24.00;73.40;;;;;;6198613;28;20054;-78
2021/07/17 10:52:40;;;;;;;12.43;8.93;;;24.10;73.00;;;;;;6198748;28;20046;-76
2021/07/17 10:55:42;;;;;;;11.45;9.73;;;24.20;72.20;;;;;;6198261;28;20176;-76
2021/07/17 10:58:44;;;;;;;15.80;9.68;;;24.40;72.10;;;;;;6198492;28;20050;-76
2021/07/17 11:02:06;;;;;;;15.13;10.35;;;24.50;71.70;;;;;;6198601;28;20167;-77
2021/07/17 11:05:10;;;;;;;11.50;9.25;;;24.70;71.30;;;;;;6198484;28;20121;-76
2021/07/17 11:08:29;;;;;;;19.02;9.60;;;24.80;70.60;;;;;;6195424;28;20125;-76
2021/07/17 11:11:37;;;;;;;16.25;11.02;;;24.80;70.10;;;;;;6173123;28;20120;-77
2021/07/17 11:14:39;;;;;;;12.70;11.40;;;24.80;70.00;;;;;;6178277;28;20053;-76
2021/07/17 11:17:42;;;;;;;12.13;10.35;;;24.70;70.00;;;;;;6198222;28;20050;-76
2021/07/17 11:20:45;;;;;;;17.25;11.07;;;24.70;69.90;;;;;;6198165;28;20133;-76
2021/07/17 11:23:48;;;;;;;12.75;11.02;;;24.70;69.70;;;;;;6197800;28;20046;-77
2021/07/17 11:27:09;;;;;;;13.82;10.18;;;24.70;69.50;;;;;;6197375;28;20129;-76
2021/07/17 11:30:15;;;;;;;13.18;10.30;;;24.80;69.70;;;;;;6198086;28;20046;-76
2021/07/17 11:33:17;;;;;;;10.63;8.95;;;24.90;69.30;;;;;;6198148;28;20082;-77
2021/07/17 11:36:26;;;;;;;14.40;10.80;;;24.90;69.10;;;;;;6198082;28;20511;-76
2021/07/17 11:39:30;;;;;;;16.08;10.38;;;24.90;69.00;;;;;;6197627;28;20527;-76
2021/07/17 11:42:36;;;;;;;12.15;9.70;;;24.90;68.80;;;;;;6197675;28;20517;-77
2021/07/17 11:45:39;;;;;;;13.48;10.32;;;24.90;69.00;;;;;;6197543;28;20050;-77
2021/07/17 11:48:41;;;;;;;12.63;10.05;;;25.00;68.70;;;;;;6197558;28;20046;-76
2021/07/17 11:51:51;;;;;;;11.90;9.93;;;25.20;68.60;;;;;;6197805;28;20051;-77
2021/07/17 11:54:55;;;;;;;17.50;9.27;;;25.30;68.70;;;;;;6197363;28;20185;-76
2021/07/17 11:57:57;;;;;;;12.35;9.63;;;25.40;67.70;;;;;;6197570;28;20094;-76
2021/07/17 12:01:01;;;;;;;13.55;8.82;;;25.40;66.80;;;;;;6197144;28;20042;-76
2021/07/17 12:04:03;;;;;;;10.77;8.50;;;25.50;67.00;;;;;;6181337;28;20066;-77
2021/07/17 12:07:09;;;;;;;12.63;9.38;;;25.70;66.60;;;;;;6173243;28;20057;-76
2021/07/17 12:10:13;;;;;;;11.52;8.85;;;25.90;66.10;;;;;;6173208;28;20594;-76
2021/07/17 12:13:14;;;;;;;17.02;10.23;;;25.80;65.50;;;;;;6181699;28;20128;-77
2021/07/17 12:16:21;;;;;;;16.02;10.27;;;25.80;65.80;;;;;;6216685;28;20120;-75
2021/07/17 12:19:23;;;;;;;13.15;10.10;;;25.70;65.80;;;;;;6224084;28;20452;-77
2021/07/17 12:22:26;;;;;;;11.93;9.77;;;25.70;65.50;;;;;;6224074;28;20049;-76
2021/07/17 12:25:30;;;;;;;11.25;8.32;;;25.80;65.30;;;;;;6225666;28;20081;-74
2021/07/17 12:28:36;;;;;;;9.55;7.85;;;25.90;65.20;;;;;;6226569;28;20107;-75
2021/07/17 12:31:37;;;;;;;15.43;9.13;;;26.10;64.70;;;;;;6226529;28;20046;-75
2021/07/17 12:34:39;;;;;;;11.35;8.98;;;26.50;63.80;;;;;;6225972;28;20049;-75
2021/07/17 12:37:42;;;;;;;16.30;10.43;;;26.80;63.00;;;;;;6226038;28;20554;-75
2021/07/17 12:40:52;;;;;;;14.70;10.38;;;27.10;62.30;;;;;;6225777;28;20074;-76
2021/07/17 12:43:55;;;;;;;17.63;9.90;;;27.40;61.30;;;;;;6226072;28;20042;-76
2021/07/17 12:47:04;;;;;;;12.48;10.20;;;27.40;61.10;;;;;;6225575;28;20495;-76
2021/07/17 12:50:07;;;;;;;10.98;9.20;;;27.30;60.60;;;;;;6225490;28;20411;-75
2021/07/17 12:53:11;;;;;;;12.10;9.02;;;27.10;61.30;;;;;;6225963;28;20131;-75
2021/07/17 12:56:15;;;;;;;13.32;9.25;;;27.00;61.50;;;;;;6225132;28;20411;-75
2021/07/17 12:59:20;;;;;;;9.88;8.73;;;27.10;61.60;;;;;;6224820;28;20056;-75
2021/07/17 13:02:22;;;;;;;9.38;7.65;;;27.20;62.00;;;;;;6225398;28;20101;-75
2021/07/17 13:05:45;;;;;;;7.95;6.40;;;27.30;61.20;;;;;;6225427;28;20058;-75
2021/07/17 13:08:58;;;;;;;13.70;8.00;;;27.30;61.10;;;;;;6202423;28;20043;-75
2021/07/17 13:12:00;;;;;;;11.40;8.70;;;27.30;61.30;;;;;;6195394;28;20050;-75
2021/07/17 13:15:02;;;;;;;9.60;8.60;;;27.50;60.70;;;;;;6222020;28;20107;-75
2021/07/17 13:18:17;;;;;;;8.52;7.65;;;27.50;60.80;;;;;;6224235;28;20455;-75
2021/07/17 13:21:19;;;;;;;14.15;8.93;;;27.70;60.70;;;;;;6225113;28;20053;-75
2021/07/17 13:24:22;;;;;;;10.23;7.32;;;27.80;59.90;;;;;;6224103;28;20050;-75
2021/07/17 13:27:26;;;;;;;11.50;8.68;;;27.90;59.60;;;;;;6224517;28;20053;-76
2021/07/17 13:30:31;;;;;;;9.93;8.95;;;28.00;59.50;;;;;;6223954;28;20569;-76
2021/07/17 13:33:33;;;;;;;11.02;8.20;;;27.90;59.20;;;;;;6224885;28;20634;-76
2021/07/17 13:36:34;;;;;;;11.73;8.43;;;27.80;59.60;;;;;;6223313;28;20584;-76
2021/07/17 13:39:52;;;;;;;14.43;8.18;;;27.60;59.80;;;;;;6224352;28;20046;-75
2021/07/17 13:42:54;;;;;;;12.02;8.60;;;27.40;60.50;;;;;;6223900;28;20050;-75
2021/07/17 13:46:02;;;;;;;11.45;7.80;;;27.10;61.10;;;;;;6224406;28;20197;-75
2021/07/17 13:49:10;;;;;;;;;;;27.00;61.40;;;;;;6224465;28;20050;-75
2021/07/17 13:52:32;;;;;;;9.20;7.93;;;26.90;61.80;;;;;;6223755;28;20067;-76
2021/07/17 13:55:38;;;;;;;12.32;7.80;;;26.70;62.60;;;;;;6223683;28;20439;-77
2021/07/17 13:58:40;;;;;;;9.80;8.00;;;26.60;63.10;;;;;;6223608;28;20128;-75
2021/07/17 14:01:42;;;;;;;10.77;8.25;;;26.50;62.80;;;;;;6223952;28;20054;-75
2021/07/17 14:04:44;;;;;;;10.65;9.05;;;26.50;63.30;;;;;;6223319;28;20064;-75
2021/07/17 14:07:46;;;;;;;9.73;8.68;;;26.50;63.30;;;;;;6223429;28;20050;-75
2021/07/17 14:10:50;;;;;;;9.25;7.00;;;26.50;63.60;;;;;;6223770;28;20050;-75
2021/07/17 14:13:52;;;;;;;13.73;7.53;;;26.40;63.90;;;;;;6233293;23;20053;-77
2021/07/17 14:16:54;;;;;;;8.60;7.43;;;26.40;64.00;;;;;;6200030;28;20178;-77
2021/07/17 14:19:57;;;;;;;10.80;7.70;;;26.30;64.00;;;;;;6200450;28;20053;-76
2021/07/17 14:23:00;;;;;;;12.48;8.80;;;26.30;64.10;;;;;;6193537;28;20078;-76
2021/07/17 14:26:05;;;;;;;13.80;10.02;;;26.20;64.00;;;;;;6175846;28;20535;-77
2021/07/17 14:29:06;;;;;;;11.85;7.93;;;26.10;64.20;;;;;;6176087;28;20197;-76
2021/07/17 14:32:09;;;;;;;12.00;8.52;;;26.10;64.60;;;;;;6158788;28;20142;-76
2021/07/17 14:35:11;;;;;;;10.50;8.43;;;26.20;64.80;;;;;;6152770;28;20475;-76
2021/07/17 14:38:14;;;;;;;7.65;6.68;;;26.30;64.60;;;;;;6151935;28;20126;-76
2021/07/17 14:41:17;;;;;;;8.93;7.65;;;26.40;64.20;;;;;;6152197;28;20134;-76
2021/07/17 14:44:20;;;;;;;11.27;7.65;;;26.60;64.10;;;;;;6149941;28;20055;-76
2021/07/17 14:47:21;;;;;;;10.05;8.27;;;26.70;64.20;;;;;;6150570;28;20103;-76
2021/07/17 14:50:23;;;;;;;12.20;7.82;;;26.70;65.10;;;;;;6150523;28;20424;-76
2021/07/17 14:53:25;;;;;;;14.30;8.30;;;26.70;64.80;;;;;;6151829;29;20137;-76
2021/07/17 14:56:30;;;;;;;14.88;7.97;;;26.80;64.90;;;;;;6150444;28;20482;-76
2021/07/17 14:59:32;;;;;;;11.50;6.88;;;27.00;64.30;;;;;;6150562;28;20051;-76
2021/07/17 15:02:34;;;;;;;11.52;8.20;;;27.20;63.70;;;;;;6154555;28;20639;-76
2021/07/17 15:05:36;;;;;;;10.23;6.18;;;27.50;62.70;;;;;;6175360;28;20055;-76
2021/07/17 15:08:37;;;;;;;13.52;7.47;;;27.80;62.10;;;;;;6174602;28;20039;-76
2021/07/17 15:11:41;;;;;;;13.98;7.95;;;28.10;61.30;;;;;;6174337;28;20468;-76
2021/07/17 15:14:43;;;;;;;17.38;7.07;;;28.30;60.40;;;;;;6175558;28;20244;-76
2021/07/17 15:17:45;;;;;;;10.02;7.15;;;28.40;60.30;;;;;;6174506;28;20566;-76
2021/07/17 15:20:47;;;;;;;11.57;7.13;;;28.50;60.00;;;;;;6173830;28;20146;-76
2021/07/17 15:23:49;;;;;;;9.48;6.15;;;28.60;60.00;;;;;;6173866;28;20047;-76
2021/07/17 15:26:52;;;;;;;9.48;7.03;;;28.70;59.80;;;;;;6173607;28;20070;-75
2021/07/17 15:29:54;;;;;;;14.43;8.35;;;28.80;59.70;;;;;;6174065;28;20153;-76
2021/07/17 15:32:57;;;;;;;6.85;6.15;;;28.90;59.00;;;;;;6173601;28;20066;-76
2021/07/17 15:35:58;;;;;;;8.20;7.03;;;29.10;59.20;;;;;;6173620;28;20071;-76